ERT951 HSSK-HHAS
Flight info
| Callsign | ERT951 |
|---|---|
| Flight time | 1h 0m |
| Altitude | 35000 |
| Route | TABKO2B TABKO DCT DENDI Y866 KSL UB526 ASM |
| Aircraft | B762/H-SDFGIRWY/S |
Departure
| Time | 2026-05-08 20:53 |
|---|---|
| Airport | Khartoum International Airport (HSSK) |
Arrival
| Time | 2026-05-08 21:53 |
|---|---|
| Airport | Asmara International Airport (HHAS) |
| Time | Latitude | Longitude | Altitude | Speed | Heading |
|---|---|---|---|---|---|
| 2026-05-08 20:24 | 15.58862 | 32.55082 | 1277 ft | 0 kts | 270° |
| 2026-05-08 20:44 | 15.58862 | 32.55087 | 1277 ft | 2 kts | 270° |
| 2026-05-08 20:44 | 15.58862 | 32.55102 | 1277 ft | 2 kts | 270° |
| 2026-05-08 20:45 | 15.58862 | 32.55117 | 1278 ft | 1 kts | 270° |
| 2026-05-08 20:45 | 15.58862 | 32.55122 | 1278 ft | 2 kts | 268° |
| 2026-05-08 20:45 | 15.58870 | 32.55141 | 1278 ft | 2 kts | 223° |
| 2026-05-08 20:45 | 15.58882 | 32.55150 | 1279 ft | 2 kts | 194° |
| 2026-05-08 20:46 | 15.58890 | 32.55151 | 1279 ft | 1 kts | 178° |
| 2026-05-08 20:46 | 15.58895 | 32.55151 | 1279 ft | 0 kts | 179° |
| 2026-05-08 20:48 | 15.58894 | 32.55151 | 1279 ft | 1 kts | 179° |
| 2026-05-08 20:48 | 15.58865 | 32.55151 | 1278 ft | 8 kts | 180° |
| 2026-05-08 20:48 | 15.58777 | 32.55151 | 1278 ft | 16 kts | 180° |
| 2026-05-08 20:48 | 15.58637 | 32.55152 | 1278 ft | 22 kts | 179° |
| 2026-05-08 20:49 | 15.58473 | 32.55154 | 1278 ft | 23 kts | 179° |
| 2026-05-08 20:49 | 15.58314 | 32.55156 | 1278 ft | 22 kts | 179° |
| 2026-05-08 20:49 | 15.58169 | 32.55157 | 1278 ft | 8 kts | 180° |
| 2026-05-08 20:49 | 15.58148 | 32.55157 | 1278 ft | 2 kts | 180° |
| 2026-05-08 20:50 | 15.58105 | 32.55157 | 1278 ft | 9 kts | 180° |
| 2026-05-08 20:50 | 15.58025 | 32.55194 | 1278 ft | 16 kts | 135° |
| 2026-05-08 20:50 | 15.57928 | 32.55296 | 1276 ft | 23 kts | 135° |
| 2026-05-08 20:50 | 15.57770 | 32.55330 | 1275 ft | 18 kts | 179° |
| 2026-05-08 20:51 | 15.57673 | 32.55368 | 1274 ft | 14 kts | 143° |
| 2026-05-08 20:51 | 15.57636 | 32.55342 | 1274 ft | 7 kts | 315° |
| 2026-05-08 20:51 | 15.57677 | 32.55329 | 1275 ft | 0 kts | 1° |
| 2026-05-08 20:52 | 15.57681 | 32.55329 | 1275 ft | 6 kts | 1° |
| 2026-05-08 20:52 | 15.57887 | 32.55329 | 1276 ft | 54 kts | 360° |
| 2026-05-08 20:52 | 15.58433 | 32.55322 | 1278 ft | 99 kts | 359° |
| 2026-05-08 20:52 | 15.59258 | 32.55310 | 1298 ft | 135 kts | 357° |
| 2026-05-08 20:53 | 15.60261 | 32.55309 | 1483 ft | 152 kts | 359° |
| 2026-05-08 20:53 | 15.61307 | 32.55320 | 2068 ft | 147 kts | 359° |
| 2026-05-08 20:53 | 15.62337 | 32.55306 | 2466 ft | 153 kts | 359° |
| 2026-05-08 20:53 | 15.63450 | 32.55296 | 2778 ft | 165 kts | 359° |
| 2026-05-08 20:54 | 15.64647 | 32.55294 | 3124 ft | 179 kts | 359° |
| 2026-05-08 20:54 | 15.65941 | 32.55279 | 3460 ft | 195 kts | 359° |
| 2026-05-08 20:54 | 15.67348 | 32.55433 | 3754 ft | 214 kts | 20° |
| 2026-05-08 20:54 | 15.68529 | 32.56416 | 4266 ft | 228 kts | 53° |
| 2026-05-08 20:55 | 15.69084 | 32.57980 | 4817 ft | 240 kts | 76° |
| 2026-05-08 20:55 | 15.69278 | 32.59714 | 5484 ft | 241 kts | 81° |
| 2026-05-08 20:55 | 15.69395 | 32.61417 | 6183 ft | 240 kts | 83° |
| 2026-05-08 20:55 | 15.69515 | 32.63144 | 6803 ft | 243 kts | 83° |
| 2026-05-08 20:56 | 15.69638 | 32.64883 | 7461 ft | 245 kts | 84° |
| 2026-05-08 20:56 | 15.69764 | 32.66653 | 8127 ft | 246 kts | 84° |
| 2026-05-08 20:56 | 15.69889 | 32.68416 | 8803 ft | 248 kts | 85° |
| 2026-05-08 20:56 | 15.70015 | 32.70181 | 9482 ft | 249 kts | 85° |
| 2026-05-08 20:57 | 15.70145 | 32.71992 | 9899 ft | 259 kts | 85° |
| 2026-05-08 20:57 | 15.70200 | 32.73950 | 10010 ft | 282 kts | 90° |
| 2026-05-08 20:57 | 15.70199 | 32.76023 | 10396 ft | 298 kts | 89° |
| 2026-05-08 20:57 | 15.70214 | 32.78237 | 10787 ft | 315 kts | 89° |
| 2026-05-08 20:58 | 15.70233 | 32.80561 | 11364 ft | 325 kts | 89° |
| 2026-05-08 20:58 | 15.70255 | 32.82869 | 12162 ft | 327 kts | 90° |
| 2026-05-08 20:58 | 15.70277 | 32.85250 | 12877 ft | 332 kts | 90° |
| 2026-05-08 20:58 | 15.70301 | 32.87650 | 13635 ft | 335 kts | 90° |
| 2026-05-08 20:59 | 15.70323 | 32.90067 | 14359 ft | 339 kts | 89° |
| 2026-05-08 20:59 | 15.70346 | 32.92508 | 14993 ft | 345 kts | 89° |
| 2026-05-08 20:59 | 15.70370 | 32.95014 | 15705 ft | 348 kts | 89° |
| 2026-05-08 20:59 | 15.70394 | 32.97520 | 16361 ft | 353 kts | 89° |
| 2026-05-08 21:00 | 15.70419 | 33.00093 | 17001 ft | 358 kts | 88° |
| 2026-05-08 21:00 | 15.70439 | 33.02672 | 17645 ft | 364 kts | 90° |
| 2026-05-08 21:00 | 15.70091 | 33.05353 | 17829 ft | 386 kts | 104° |
| 2026-05-08 21:00 | 15.69185 | 33.07995 | 18330 ft | 397 kts | 109° |
| 2026-05-08 21:01 | 15.68264 | 33.10711 | 19138 ft | 400 kts | 108° |
| 2026-05-08 21:01 | 15.67328 | 33.13436 | 19845 ft | 405 kts | 108° |
| 2026-05-08 21:01 | 15.66394 | 33.16161 | 20561 ft | 409 kts | 108° |
| 2026-05-08 21:01 | 15.65434 | 33.18954 | 21288 ft | 413 kts | 108° |
| 2026-05-08 21:02 | 15.64464 | 33.21777 | 21960 ft | 417 kts | 108° |
| 2026-05-08 21:02 | 15.63484 | 33.24626 | 22627 ft | 422 kts | 108° |
| 2026-05-08 21:02 | 15.62507 | 33.27464 | 23204 ft | 427 kts | 108° |
| 2026-05-08 21:02 | 15.61505 | 33.30375 | 23775 ft | 432 kts | 109° |
| 2026-05-08 21:03 | 15.60481 | 33.33347 | 24284 ft | 439 kts | 109° |
| 2026-05-08 21:03 | 15.59444 | 33.36351 | 24799 ft | 444 kts | 109° |
| 2026-05-08 21:03 | 15.58412 | 33.39342 | 25369 ft | 447 kts | 110° |
| 2026-05-08 21:03 | 15.57350 | 33.42420 | 25792 ft | 454 kts | 110° |
| 2026-05-08 21:04 | 15.56286 | 33.45497 | 26354 ft | 457 kts | 110° |
| 2026-05-08 21:04 | 15.55213 | 33.48604 | 26815 ft | 461 kts | 111° |
| 2026-05-08 21:04 | 15.54132 | 33.51728 | 27225 ft | 466 kts | 111° |
| 2026-05-08 21:04 | 15.53032 | 33.54910 | 27694 ft | 469 kts | 111° |
| 2026-05-08 21:05 | 15.52108 | 33.58144 | 28033 ft | 476 kts | 104° |
| 2026-05-08 21:05 | 15.51682 | 33.61577 | 28472 ft | 482 kts | 94° |
| 2026-05-08 21:05 | 15.51592 | 33.65035 | 28822 ft | 486 kts | 94° |
| 2026-05-08 21:05 | 15.51505 | 33.68563 | 29287 ft | 488 kts | 94° |
| 2026-05-08 21:06 | 15.51428 | 33.72053 | 29808 ft | 487 kts | 95° |
| 2026-05-08 21:06 | 15.51351 | 33.75567 | 30289 ft | 487 kts | 95° |
| 2026-05-08 21:06 | 15.51275 | 33.79034 | 30841 ft | 486 kts | 95° |
| 2026-05-08 21:06 | 15.51199 | 33.82509 | 31309 ft | 486 kts | 96° |
| 2026-05-08 21:07 | 15.51123 | 33.86026 | 31860 ft | 484 kts | 96° |
| 2026-05-08 21:07 | 15.51047 | 33.89481 | 32401 ft | 482 kts | 97° |
| 2026-05-08 21:07 | 15.50970 | 33.92954 | 32862 ft | 482 kts | 97° |
| 2026-05-08 21:07 | 15.50892 | 33.96402 | 33371 ft | 481 kts | 97° |
| 2026-05-08 21:08 | 15.50813 | 33.99826 | 33921 ft | 480 kts | 97° |
| 2026-05-08 21:08 | 15.50733 | 34.03299 | 34287 ft | 482 kts | 97° |
| 2026-05-08 21:08 | 15.50655 | 34.06744 | 34770 ft | 481 kts | 97° |
| 2026-05-08 21:08 | 15.50577 | 34.10209 | 34884 ft | 478 kts | 97° |
| 2026-05-08 21:09 | 15.50498 | 34.13656 | 34883 ft | 475 kts | 97° |
| 2026-05-08 21:09 | 15.50337 | 34.20542 | 34889 ft | 481 kts | 97° |
| 2026-05-08 21:10 | 15.50174 | 34.27430 | 34890 ft | 481 kts | 97° |
| 2026-05-08 21:10 | 15.49898 | 34.34365 | 34889 ft | 480 kts | 98° |
| 2026-05-08 21:11 | 15.49612 | 34.41234 | 34887 ft | 479 kts | 98° |
| 2026-05-08 21:11 | 15.49322 | 34.48157 | 34889 ft | 481 kts | 98° |
| 2026-05-08 21:12 | 15.49030 | 34.55082 | 34893 ft | 482 kts | 98° |
| 2026-05-08 21:12 | 15.48737 | 34.61991 | 34894 ft | 481 kts | 98° |
| 2026-05-08 21:13 | 15.48441 | 34.68920 | 34888 ft | 482 kts | 98° |
| 2026-05-08 21:13 | 15.48143 | 34.75848 | 34883 ft | 482 kts | 98° |
| 2026-05-08 21:14 | 15.47843 | 34.82766 | 34877 ft | 482 kts | 98° |
| 2026-05-08 21:14 | 15.47541 | 34.89702 | 34878 ft | 483 kts | 98° |
| 2026-05-08 21:15 | 15.47237 | 34.96605 | 34877 ft | 484 kts | 98° |
| 2026-05-08 21:15 | 15.46930 | 35.03569 | 34878 ft | 481 kts | 98° |
| 2026-05-08 21:16 | 15.46622 | 35.10447 | 34874 ft | 482 kts | 98° |
| 2026-05-08 21:16 | 15.46308 | 35.17415 | 34874 ft | 484 kts | 98° |
| 2026-05-08 21:17 | 15.45995 | 35.24356 | 34869 ft | 483 kts | 98° |
| 2026-05-08 21:17 | 15.45681 | 35.31263 | 34868 ft | 482 kts | 98° |
| 2026-05-08 21:18 | 15.45362 | 35.38189 | 34873 ft | 482 kts | 98° |
| 2026-05-08 21:18 | 15.45041 | 35.45128 | 34874 ft | 482 kts | 98° |
| 2026-05-08 21:19 | 15.44721 | 35.52039 | 34872 ft | 482 kts | 98° |
| 2026-05-08 21:19 | 15.44398 | 35.58959 | 34874 ft | 480 kts | 98° |
| 2026-05-08 21:20 | 15.44071 | 35.65865 | 34874 ft | 483 kts | 98° |
| 2026-05-08 21:20 | 15.43744 | 35.72774 | 34870 ft | 480 kts | 98° |
| 2026-05-08 21:21 | 15.43417 | 35.79636 | 34866 ft | 479 kts | 98° |
| 2026-05-08 21:21 | 15.43083 | 35.86572 | 34868 ft | 480 kts | 98° |
| 2026-05-08 21:22 | 15.42751 | 35.93438 | 34868 ft | 480 kts | 98° |
| 2026-05-08 21:22 | 15.42414 | 36.00365 | 34858 ft | 480 kts | 98° |
| 2026-05-08 21:23 | 15.42078 | 36.07274 | 34858 ft | 480 kts | 98° |
| 2026-05-08 21:23 | 15.41738 | 36.14149 | 34857 ft | 479 kts | 98° |
| 2026-05-08 21:24 | 15.41398 | 36.21022 | 34863 ft | 478 kts | 98° |
| 2026-05-08 21:24 | 15.41054 | 36.27905 | 34872 ft | 480 kts | 98° |
| 2026-05-08 21:25 | 15.40693 | 36.34798 | 34881 ft | 480 kts | 99° |
| 2026-05-08 21:25 | 15.40217 | 36.41656 | 34891 ft | 478 kts | 99° |
| 2026-05-08 21:26 | 15.39744 | 36.48478 | 34897 ft | 478 kts | 99° |
| 2026-05-08 21:26 | 15.39267 | 36.55343 | 34906 ft | 478 kts | 99° |
| 2026-05-08 21:27 | 15.38790 | 36.62204 | 34927 ft | 476 kts | 99° |
| 2026-05-08 21:27 | 15.38310 | 36.69038 | 34930 ft | 476 kts | 99° |
| 2026-05-08 21:28 | 15.37829 | 36.75873 | 34944 ft | 478 kts | 99° |
| 2026-05-08 21:28 | 15.37346 | 36.82719 | 34953 ft | 476 kts | 99° |
| 2026-05-08 21:29 | 15.36861 | 36.89542 | 34957 ft | 478 kts | 99° |
| 2026-05-08 21:29 | 15.36373 | 36.96381 | 34970 ft | 478 kts | 99° |
| 2026-05-08 21:30 | 15.35884 | 37.03221 | 34987 ft | 477 kts | 99° |
| 2026-05-08 21:30 | 15.35390 | 37.10090 | 34985 ft | 479 kts | 99° |
| 2026-05-08 21:31 | 15.34935 | 37.16922 | 34984 ft | 481 kts | 96° |
| 2026-05-08 21:31 | 15.35386 | 37.23861 | 34985 ft | 485 kts | 89° |
| 2026-05-08 21:32 | 15.35971 | 37.30817 | 34990 ft | 484 kts | 89° |
| 2026-05-08 21:32 | 15.36564 | 37.37763 | 34984 ft | 485 kts | 89° |
| 2026-05-08 21:33 | 15.37156 | 37.44666 | 34977 ft | 485 kts | 89° |
| 2026-05-08 21:33 | 15.37752 | 37.51633 | 34980 ft | 485 kts | 89° |
| 2026-05-08 21:34 | 15.38345 | 37.58598 | 34985 ft | 488 kts | 89° |
| 2026-05-08 21:34 | 15.38938 | 37.65557 | 34994 ft | 486 kts | 89° |
| 2026-05-08 21:35 | 15.39528 | 37.72540 | 34997 ft | 486 kts | 89° |
| 2026-05-08 21:35 | 15.40114 | 37.79482 | 35004 ft | 487 kts | 89° |
| 2026-05-08 21:35 | 15.40409 | 37.82997 | 34570 ft | 494 kts | 89° |
| 2026-05-08 21:36 | 15.40708 | 37.86546 | 33960 ft | 493 kts | 89° |
| 2026-05-08 21:36 | 15.41006 | 37.90091 | 33363 ft | 490 kts | 89° |
| 2026-05-08 21:36 | 15.41298 | 37.93579 | 32791 ft | 486 kts | 89° |
| 2026-05-08 21:36 | 15.41588 | 37.97045 | 32258 ft | 482 kts | 89° |
| 2026-05-08 21:37 | 15.41870 | 38.00432 | 31736 ft | 477 kts | 89° |
| 2026-05-08 21:37 | 15.42154 | 38.03844 | 31216 ft | 474 kts | 89° |
| 2026-05-08 21:37 | 15.42436 | 38.07254 | 30693 ft | 471 kts | 89° |
| 2026-05-08 21:37 | 15.42713 | 38.10612 | 30186 ft | 470 kts | 89° |
| 2026-05-08 21:38 | 15.42990 | 38.13963 | 29685 ft | 470 kts | 88° |
| 2026-05-08 21:38 | 15.43267 | 38.17319 | 29184 ft | 470 kts | 88° |
| 2026-05-08 21:38 | 15.43545 | 38.20708 | 28682 ft | 468 kts | 88° |
| 2026-05-08 21:38 | 15.43819 | 38.24014 | 28214 ft | 463 kts | 87° |
| 2026-05-08 21:39 | 15.44088 | 38.27300 | 27747 ft | 457 kts | 87° |
| 2026-05-08 21:39 | 15.44357 | 38.30583 | 27272 ft | 451 kts | 86° |
| 2026-05-08 21:39 | 15.44618 | 38.33773 | 26805 ft | 446 kts | 86° |
| 2026-05-08 21:39 | 15.44879 | 38.36978 | 26340 ft | 443 kts | 86° |
| 2026-05-08 21:40 | 15.45133 | 38.40095 | 25896 ft | 438 kts | 86° |
| 2026-05-08 21:40 | 15.45389 | 38.43245 | 25437 ft | 434 kts | 85° |
| 2026-05-08 21:40 | 15.45640 | 38.46325 | 24995 ft | 429 kts | 85° |
| 2026-05-08 21:41 | 15.46133 | 38.52426 | 24103 ft | 421 kts | 84° |
| 2026-05-08 21:41 | 15.46374 | 38.55407 | 23659 ft | 416 kts | 84° |
| 2026-05-08 21:41 | 15.46613 | 38.58369 | 23219 ft | 413 kts | 84° |
| 2026-05-08 21:41 | 15.46850 | 38.61295 | 22782 ft | 408 kts | 84° |
| 2026-05-08 21:42 | 15.47085 | 38.64228 | 22336 ft | 404 kts | 83° |
| 2026-05-08 21:42 | 15.47316 | 38.67093 | 21910 ft | 400 kts | 84° |
| 2026-05-08 21:42 | 15.47545 | 38.69947 | 21488 ft | 396 kts | 84° |
| 2026-05-08 21:42 | 15.47771 | 38.72768 | 21069 ft | 393 kts | 84° |
| 2026-05-08 21:43 | 15.47998 | 38.75596 | 20653 ft | 389 kts | 84° |
| 2026-05-08 21:43 | 15.48217 | 38.78347 | 20238 ft | 386 kts | 84° |
| 2026-05-08 21:43 | 15.48438 | 38.81117 | 19816 ft | 381 kts | 84° |
| 2026-05-08 21:43 | 15.48656 | 38.83854 | 19393 ft | 379 kts | 84° |
| 2026-05-08 21:44 | 15.48869 | 38.86543 | 18977 ft | 376 kts | 84° |
| 2026-05-08 21:44 | 15.49083 | 38.89240 | 18557 ft | 374 kts | 84° |
| 2026-05-08 21:44 | 15.49292 | 38.91881 | 18141 ft | 369 kts | 85° |
| 2026-05-08 21:44 | 15.49502 | 38.94540 | 17714 ft | 366 kts | 85° |
| 2026-05-08 21:45 | 15.49707 | 38.97137 | 17297 ft | 364 kts | 85° |
| 2026-05-08 21:45 | 15.49913 | 38.99749 | 16886 ft | 360 kts | 85° |
| 2026-05-08 21:45 | 15.50114 | 39.02296 | 16454 ft | 355 kts | 85° |
| 2026-05-08 21:45 | 15.50313 | 39.04842 | 16026 ft | 350 kts | 85° |
| 2026-05-08 21:46 | 15.50422 | 39.07325 | 15589 ft | 343 kts | 93° |
| 2026-05-08 21:46 | 15.49938 | 39.09669 | 15128 ft | 328 kts | 110° |
| 2026-05-08 21:46 | 15.48815 | 39.11657 | 14732 ft | 314 kts | 128° |
| 2026-05-08 21:46 | 15.47300 | 39.13237 | 14386 ft | 301 kts | 134° |
| 2026-05-08 21:47 | 15.45780 | 39.14653 | 14023 ft | 290 kts | 136° |
| 2026-05-08 21:47 | 15.44268 | 39.15991 | 13700 ft | 278 kts | 136° |
| 2026-05-08 21:47 | 15.42776 | 39.17187 | 13389 ft | 269 kts | 147° |
| 2026-05-08 21:47 | 15.40994 | 39.17718 | 13142 ft | 266 kts | 175° |
| 2026-05-08 21:48 | 15.39191 | 39.17332 | 12776 ft | 269 kts | 200° |
| 2026-05-08 21:48 | 15.37563 | 39.16457 | 12455 ft | 262 kts | 203° |
| 2026-05-08 21:48 | 15.36056 | 39.15410 | 12076 ft | 260 kts | 224° |
| 2026-05-08 21:48 | 15.35172 | 39.13822 | 11820 ft | 253 kts | 250° |
| 2026-05-08 21:49 | 15.34666 | 39.12117 | 11624 ft | 238 kts | 251° |
| 2026-05-08 21:49 | 15.34198 | 39.10533 | 11365 ft | 229 kts | 252° |
| 2026-05-08 21:49 | 15.33749 | 39.08962 | 11102 ft | 221 kts | 252° |
| 2026-05-08 21:49 | 15.33338 | 39.07488 | 10936 ft | 210 kts | 252° |
| 2026-05-08 21:50 | 15.32947 | 39.06068 | 10741 ft | 198 kts | 252° |
| 2026-05-08 21:50 | 15.32575 | 39.04715 | 10454 ft | 194 kts | 252° |
| 2026-05-08 21:50 | 15.32212 | 39.03391 | 10132 ft | 192 kts | 252° |
| 2026-05-08 21:50 | 15.31849 | 39.02059 | 9792 ft | 191 kts | 252° |
| 2026-05-08 21:51 | 15.31487 | 39.00735 | 9393 ft | 194 kts | 253° |
| 2026-05-08 21:51 | 15.31127 | 38.99416 | 9120 ft | 187 kts | 253° |
| 2026-05-08 21:51 | 15.30782 | 38.98146 | 8864 ft | 176 kts | 253° |
| 2026-05-08 21:51 | 15.30466 | 38.96987 | 8633 ft | 163 kts | 254° |
| 2026-05-08 21:52 | 15.30176 | 38.95857 | 8304 ft | 163 kts | 256° |
| 2026-05-08 21:52 | 15.29876 | 38.94737 | 8049 ft | 161 kts | 252° |
| 2026-05-08 21:52 | 15.29548 | 38.93628 | 7860 ft | 162 kts | 253° |
| 2026-05-08 21:52 | 15.29244 | 38.92492 | 7662 ft | 163 kts | 254° |
| 2026-05-08 21:53 | 15.28937 | 38.91364 | 7544 ft | 158 kts | 255° |
| 2026-05-08 21:53 | 15.28670 | 38.90382 | 7540 ft | 122 kts | 253° |
| 2026-05-08 21:53 | 15.28514 | 38.89825 | 7558 ft | 55 kts | 255° |
| 2026-05-08 21:53 | 15.28446 | 38.89577 | 7566 ft | 16 kts | 248° |
| 2026-05-08 21:54 | 15.28404 | 38.89518 | 7568 ft | 5 kts | 231° |
| 2026-05-08 21:54 | 15.28393 | 38.89494 | 7568 ft | 1 kts | 271° |
| 2026-05-08 21:54 | 15.28398 | 38.89482 | 7568 ft | 1 kts | 315° |
| 2026-05-08 21:54 | 15.28415 | 38.89485 | 7568 ft | 4 kts | 31° |
| 2026-05-08 21:55 | 15.28434 | 38.89521 | 7567 ft | 6 kts | 75° |
| 2026-05-08 21:55 | 15.28447 | 38.89567 | 7566 ft | 6 kts | 75° |
| 2026-05-08 21:55 | 15.28463 | 38.89631 | 7565 ft | 11 kts | 75° |
| 2026-05-08 21:56 | 15.28532 | 38.89887 | 7555 ft | 25 kts | 75° |
| 2026-05-08 21:56 | 15.28588 | 38.90085 | 7547 ft | 31 kts | 74° |
| 2026-05-08 21:56 | 15.28653 | 38.90323 | 7541 ft | 36 kts | 74° |
| 2026-05-08 21:56 | 15.28725 | 38.90585 | 7538 ft | 38 kts | 74° |
| 2026-05-08 21:57 | 15.28758 | 38.90705 | 7539 ft | 11 kts | 74° |
| 2026-05-08 21:57 | 15.28785 | 38.90768 | 7539 ft | 7 kts | 32° |
| 2026-05-08 21:57 | 15.28828 | 38.90772 | 7539 ft | 5 kts | 354° |
| 2026-05-08 21:57 | 15.28863 | 38.90764 | 7539 ft | 5 kts | 347° |
| 2026-05-08 21:58 | 15.28901 | 38.90754 | 7538 ft | 5 kts | 346° |
| 2026-05-08 21:58 | 15.28942 | 38.90745 | 7538 ft | 6 kts | 350° |
| 2026-05-08 21:58 | 15.29002 | 38.90743 | 7538 ft | 11 kts | 2° |
| 2026-05-08 21:58 | 15.29099 | 38.90754 | 7536 ft | 16 kts | 8° |
| 2026-05-08 21:59 | 15.29199 | 38.90770 | 7536 ft | 9 kts | 10° |
| 2026-05-08 21:59 | 15.29260 | 38.90781 | 7536 ft | 7 kts | 8° |
| 2026-05-08 21:59 | 15.29298 | 38.90786 | 7536 ft | 5 kts | 8° |
| 2026-05-08 21:59 | 15.29335 | 38.90792 | 7536 ft | 4 kts | 8° |
| 2026-05-08 22:00 | 15.29359 | 38.90796 | 7536 ft | 4 kts | 9° |
| 2026-05-08 22:00 | 15.29392 | 38.90801 | 7536 ft | 7 kts | 7° |
| 2026-05-08 22:00 | 15.29431 | 38.90783 | 7535 ft | 6 kts | 291° |
| 2026-05-08 22:00 | 15.29439 | 38.90740 | 7535 ft | 5 kts | 278° |
| 2026-05-08 22:01 | 15.29441 | 38.90731 | 7535 ft | 0 kts | 278° |